Time;durP1;ratioP1;P1;durP2;ratioP2;P2;SDS_P1;SDS_P2;PMS_P1;PMS_P2;Temp;Humidity;BMP_temperature;BMP_pressure;BME280_temperature;BME280_humidity;BME280_pressure;Samples;Min_cycle;Max_cycle;Signal;HPM_P1;HPM_P2
2022/04/17 00:00:57;;;;;;;2.90;1.50;;;0.70;99.90;;;;;;5034242;28;20403;-89
2022/04/17 00:03:24;;;;;;;2.63;1.50;;;0.70;99.90;;;;;;5011883;28;20416;-88
2022/04/17 00:05:58;;;;;;;4.55;1.50;;;0.60;99.90;;;;;;5019132;28;20406;-88
2022/04/17 00:08:31;;;;;;;2.50;1.90;;;0.70;99.90;;;;;;5034692;28;20408;-88
2022/04/17 00:11:01;;;;;;;3.42;1.52;;;0.60;99.90;;;;;;5025998;28;20394;-90
2022/04/17 00:13:29;;;;;;;2.47;1.40;;;0.60;99.90;;;;;;5019427;28;20389;-88
2022/04/17 00:15:57;;;;;;;4.50;1.60;;;0.50;99.90;;;;;;5023309;28;20488;-88
2022/04/17 00:18:24;;;;;;;3.05;1.73;;;0.40;99.90;;;;;;5020690;28;20407;-88
2022/04/17 00:20:52;;;;;;;4.80;1.70;;;0.50;99.90;;;;;;5034488;28;20416;-88
2022/04/17 00:23:20;;;;;;;2.75;1.60;;;0.50;99.90;;;;;;5011021;28;20432;-89
2022/04/17 00:25:48;;;;;;;4.35;1.50;;;0.30;99.90;;;;;;5017985;28;20402;-89
2022/04/17 00:28:15;;;;;;;3.28;1.30;;;0.20;99.90;;;;;;5002605;28;20912;-88
2022/04/17 00:30:43;;;;;;;3.10;1.50;;;0.20;99.90;;;;;;5011586;28;20405;-87
2022/04/17 00:33:11;;;;;;;3.40;1.52;;;0.30;99.90;;;;;;5009996;28;20401;-87
2022/04/17 00:35:43;;;;;;;2.97;1.55;;;0.30;99.90;;;;;;5025207;28;20434;-88
2022/04/17 00:38:11;;;;;;;3.45;1.60;;;0.30;99.90;;;;;;5032217;28;20415;-87
2022/04/17 00:40:39;;;;;;;3.80;1.80;;;0.20;99.90;;;;;;4996288;28;20770;-87
2022/04/17 00:43:26;;;;;;;5.75;1.63;;;0.20;99.90;;;;;;5016204;28;20404;-88
2022/04/17 00:45:53;;;;;;;5.22;1.65;;;0.20;99.90;;;;;;5022424;28;20484;-87
2022/04/17 00:48:21;;;;;;;2.40;1.25;;;0.20;99.90;;;;;;5019248;28;20401;-87
2022/04/17 00:50:54;;;;;;;3.13;1.70;;;0.10;99.90;;;;;;5020722;28;20940;-88
2022/04/17 00:53:22;;;;;;;3.83;1.40;;;0.00;99.90;;;;;;5014997;28;20416;-87
2022/04/17 00:55:51;;;;;;;2.65;1.50;;;0.00;99.90;;;;;;5016273;28;20397;-88
2022/04/17 00:58:19;;;;;;;3.67;1.52;;;0.00;99.90;;;;;;5016786;28;20407;-89
2022/04/17 01:00:47;;;;;;;4.00;1.67;;;-0.10;99.90;;;;;;5019376;28;20389;-87
2022/04/17 01:03:15;;;;;;;2.65;1.58;;;0.00;99.90;;;;;;5034948;28;20410;-90
2022/04/17 01:05:43;;;;;;;4.80;1.90;;;-0.10;99.90;;;;;;5018350;28;20402;-88
2022/04/17 01:08:11;;;;;;;3.17;1.38;;;-0.10;99.90;;;;;;5017342;28;20462;-90
2022/04/17 01:10:40;;;;;;;3.38;1.50;;;-0.10;99.90;;;;;;5001767;28;20411;-88
2022/04/17 01:13:10;;;;;;;2.92;1.60;;;-0.10;99.90;;;;;;5051132;28;20564;-87
2022/04/17 01:15:38;;;;;;;3.13;1.50;;;-0.10;99.90;;;;;;5018940;28;20424;-88
2022/04/17 01:18:06;;;;;;;3.15;1.70;;;-0.20;99.90;;;;;;5018881;28;20398;-88
2022/04/17 01:20:36;;;;;;;3.70;1.80;;;-0.20;99.90;;;;;;5020050;28;20395;-87
2022/04/17 01:28:36;;;;;;;4.47;1.70;;;0.00;99.90;;;;;;5010238;28;20431;-88
2022/04/17 01:31:04;;;;;;;2.83;1.58;;;-0.20;99.90;;;;;;4994836;28;20401;-87
2022/04/17 01:33:32;;;;;;;3.70;1.67;;;-0.20;99.90;;;;;;5004860;28;20397;-87
2022/04/17 01:35:59;;;;;;;4.47;1.63;;;-0.10;99.90;;;;;;5038826;28;20404;-88
2022/04/17 01:38:27;;;;;;;3.47;1.60;;;-0.20;99.90;;;;;;5046739;28;20434;-87
2022/04/17 01:40:54;;;;;;;3.73;1.57;;;-0.20;99.90;;;;;;5018435;28;20407;-88
2022/04/17 01:43:22;;;;;;;3.10;1.50;;;-0.20;99.90;;;;;;5015078;28;20408;-88
2022/04/17 01:45:50;;;;;;;3.38;1.63;;;-0.20;99.90;;;;;;5015470;28;20425;-88
2022/04/17 01:48:17;;;;;;;2.95;1.70;;;-0.10;99.90;;;;;;4988888;28;20413;-88
2022/04/17 01:50:45;;;;;;;4.88;1.77;;;-0.10;99.90;;;;;;4997022;28;20393;-86
2022/04/17 01:53:12;;;;;;;3.85;1.88;;;-0.10;99.90;;;;;;4995359;28;20406;-86
2022/04/17 01:55:40;;;;;;;2.63;1.40;;;-0.10;99.90;;;;;;5012372;28;20411;-86
2022/04/17 01:58:08;;;;;;;3.60;1.55;;;-0.10;99.90;;;;;;5003568;28;20452;-87
2022/04/17 02:00:35;;;;;;;3.05;1.70;;;-0.20;99.90;;;;;;5017826;28;20403;-87
2022/04/17 02:03:03;;;;;;;3.67;1.60;;;-0.30;99.90;;;;;;5014643;28;20419;-84
2022/04/17 02:05:30;;;;;;;2.85;1.67;;;-0.30;99.90;;;;;;5010398;28;20432;-87
2022/04/17 02:07:58;;;;;;;2.20;1.48;;;-0.30;99.90;;;;;;5018926;28;20762;-88
2022/04/17 02:10:26;;;;;;;5.38;1.80;;;-0.40;99.90;;;;;;5004864;28;20903;-86
2022/04/17 02:12:54;;;;;;;3.42;1.50;;;-0.40;99.90;;;;;;5012992;28;20446;-88
2022/04/17 02:15:22;;;;;;;3.63;1.55;;;-0.40;99.90;;;;;;4988029;28;20397;-89
2022/04/17 02:17:49;;;;;;;3.22;1.50;;;-0.40;99.90;;;;;;5014270;28;20493;-88
2022/04/17 02:20:17;;;;;;;3.25;1.65;;;-0.40;99.90;;;;;;5010690;28;20399;-86
2022/04/17 02:22:45;;;;;;;3.17;1.50;;;-0.40;99.90;;;;;;5015965;28;20385;-88
2022/04/17 02:25:13;;;;;;;3.80;1.80;;;-0.40;99.90;;;;;;5046002;27;20405;-88
2022/04/17 02:27:40;;;;;;;4.30;1.70;;;-0.50;99.90;;;;;;5010825;28;20499;-88
2022/04/17 02:30:08;;;;;;;4.10;1.50;;;-0.50;99.90;;;;;;5020708;28;20903;-87
2022/04/17 02:32:36;;;;;;;4.45;1.80;;;-0.50;99.90;;;;;;5013856;28;20419;-88
2022/04/17 02:35:04;;;;;;;3.40;1.65;;;-0.50;99.90;;;;;;4996088;28;20413;-88
2022/04/17 02:37:36;;;;;;;3.35;1.70;;;-0.50;99.90;;;;;;5016448;28;20494;-88
2022/04/17 02:40:04;;;;;;;4.60;1.60;;;-0.50;99.90;;;;;;5003137;28;20392;-87
2022/04/17 02:42:32;;;;;;;4.13;1.60;;;-0.40;99.90;;;;;;5004777;28;20828;-87
2022/04/17 02:44:59;;;;;;;4.68;1.40;;;-0.40;99.90;;;;;;5014864;28;20407;-88
2022/04/17 02:47:42;;;;;;;2.83;1.60;;;-0.50;99.90;;;;;;5016639;28;20917;-89
2022/04/17 02:50:12;;;;;;;3.28;1.58;;;-0.50;99.90;;;;;;5014962;28;20411;-87
2022/04/17 02:52:39;;;;;;;2.85;1.42;;;-0.50;99.90;;;;;;5033991;28;20402;-87
2022/04/17 02:55:08;;;;;;;3.40;1.40;;;-0.60;99.90;;;;;;5008680;28;20480;-88
2022/04/17 02:57:36;;;;;;;4.35;1.70;;;-0.60;99.90;;;;;;4996297;28;20412;-86
2022/04/17 03:00:07;;;;;;;3.35;1.50;;;-0.50;99.90;;;;;;5051679;28;20753;-87
2022/04/17 03:05:37;;;;;;;4.63;1.73;;;-0.50;99.90;;;;;;5048739;28;20761;-88
2022/04/17 03:08:09;;;;;;;4.82;1.70;;;-0.50;99.90;;;;;;5041652;28;20493;-88
2022/04/17 03:10:39;;;;;;;3.10;1.58;;;-0.60;99.90;;;;;;5021335;28;20429;-88
2022/04/17 03:13:07;;;;;;;4.85;1.60;;;-0.50;99.90;;;;;;5006102;28;20443;-88
2022/04/17 03:15:37;;;;;;;5.55;1.70;;;-0.60;99.90;;;;;;5022136;28;20407;-85
2022/04/17 03:18:06;;;;;;;3.20;1.65;;;-0.60;99.90;;;;;;5005581;28;20964;-87
2022/04/17 03:20:35;;;;;;;3.75;1.73;;;-0.60;99.90;;;;;;5004918;28;20456;-88
2022/04/17 03:23:03;;;;;;;3.22;1.50;;;-0.60;99.90;;;;;;5018450;28;20389;-88
2022/04/17 03:25:31;;;;;;;3.50;1.50;;;-0.60;99.90;;;;;;5017845;28;20391;-87
2022/04/17 03:28:00;;;;;;;3.40;1.60;;;-0.60;99.90;;;;;;5009987;28;20396;-88
2022/04/17 03:30:27;;;;;;;2.72;1.45;;;-0.60;99.90;;;;;;5035906;28;20403;-87
2022/04/17 03:32:56;;;;;;;3.22;1.52;;;-0.60;99.90;;;;;;5014889;28;20415;-88
2022/04/17 03:35:24;;;;;;;3.92;1.70;;;-0.60;99.90;;;;;;5021351;28;20402;-88
2022/04/17 03:37:53;;;;;;;4.10;1.60;;;-0.60;99.90;;;;;;5032753;28;20842;-86
2022/04/17 03:40:21;;;;;;;4.15;1.70;;;-0.60;99.90;;;;;;5043729;28;20454;-87
2022/04/17 03:42:49;;;;;;;5.20;1.53;;;-0.70;99.90;;;;;;5028516;28;20415;-88
2022/04/17 03:45:17;;;;;;;3.22;1.48;;;-0.70;99.90;;;;;;5050635;28;20391;-87
2022/04/17 03:47:45;;;;;;;2.45;1.40;;;-0.90;99.90;;;;;;5038425;28;20745;-87
2022/04/17 03:50:13;;;;;;;4.60;1.63;;;-0.90;99.90;;;;;;5017743;28;20410;-88
2022/04/17 03:52:45;;;;;;;4.80;1.55;;;-0.80;99.90;;;;;;5020268;27;20385;-88
2022/04/17 03:55:13;;;;;;;3.83;1.70;;;-0.70;99.90;;;;;;5016164;28;20401;-88
2022/04/17 03:57:41;;;;;;;4.03;1.70;;;-0.70;99.90;;;;;;5011793;28;20423;-88
2022/04/17 04:00:11;;;;;;;5.13;1.50;;;-0.70;99.90;;;;;;5024183;28;20492;-88
2022/04/17 04:02:40;;;;;;;5.43;1.50;;;-0.60;99.90;;;;;;5015740;28;20401;-89
2022/04/17 04:05:09;;;;;;;2.92;1.60;;;-0.70;99.90;;;;;;5002387;28;20458;-87
2022/04/17 04:07:38;;;;;;;3.85;1.60;;;-0.60;99.90;;;;;;5019645;28;20963;-88
2022/04/17 04:10:07;;;;;;;4.05;1.77;;;-0.60;99.90;;;;;;5018707;28;20402;-88
2022/04/17 04:12:36;;;;;;;4.22;1.58;;;-0.60;99.90;;;;;;5035236;28;20412;-88
2022/04/17 04:15:05;;;;;;;3.33;1.40;;;-0.60;99.90;;;;;;5022204;28;20407;-89
2022/04/17 04:17:34;;;;;;;2.65;1.50;;;-0.60;99.90;;;;;;5013546;28;20393;-88
2022/04/17 04:20:03;;;;;;;2.33;1.45;;;-0.70;99.90;;;;;;5014966;28;20398;-88
2022/04/17 04:22:30;;;;;;;3.25;1.40;;;-0.70;99.90;;;;;;4995133;28;20416;-88
2022/04/17 04:24:58;;;;;;;3.85;1.67;;;-0.70;99.90;;;;;;5000751;28;20880;-90
2022/04/17 04:30:12;;;;;;;3.15;1.52;;;-0.60;99.90;;;;;;5017293;28;20913;-88
2022/04/17 04:32:53;;;;;;;3.22;1.50;;;-0.60;99.90;;;;;;4996357;28;20853;-88
2022/04/17 04:35:21;;;;;;;3.00;1.55;;;-0.60;99.90;;;;;;5012845;28;20424;-88
2022/04/17 04:37:53;;;;;;;2.67;1.60;;;-0.60;99.90;;;;;;5036979;28;20415;-87
2022/04/17 04:40:21;;;;;;;3.33;1.48;;;-0.60;99.90;;;;;;5010960;28;20591;-88
2022/04/17 04:42:57;;;;;;;2.22;1.33;;;-0.80;99.90;;;;;;5011100;28;20424;-88
2022/04/17 04:48:13;;;;;;;3.63;1.70;;;-0.70;99.90;;;;;;5034780;28;20411;-88
2022/04/17 04:50:41;;;;;;;3.28;1.67;;;-0.80;99.90;;;;;;5011307;28;20465;-87
2022/04/17 04:53:09;;;;;;;4.38;1.60;;;-0.70;99.90;;;;;;5007795;28;20531;-89
2022/04/17 04:55:37;;;;;;;3.50;1.40;;;-0.60;99.90;;;;;;5043949;28;20399;-88
2022/04/17 04:58:05;;;;;;;3.42;1.50;;;-0.60;99.90;;;;;;4989274;28;20514;-88
2022/04/17 05:00:32;;;;;;;3.88;1.60;;;-0.60;99.90;;;;;;4999085;28;20408;-88
2022/04/17 05:03:00;;;;;;;3.55;1.80;;;-0.60;99.90;;;;;;5042344;28;20572;-88
2022/04/17 05:05:28;;;;;;;6.43;2.78;;;-0.60;99.90;;;;;;5007925;28;20395;-89
2022/04/17 05:07:57;;;;;;;4.13;1.70;;;-0.50;99.90;;;;;;5023829;28;20931;-88
2022/04/17 05:10:25;;;;;;;4.43;1.70;;;-0.50;99.90;;;;;;5019791;28;20423;-89
2022/04/17 05:12:52;;;;;;;2.90;1.35;;;-0.50;99.90;;;;;;5032630;28;20502;-87
2022/04/17 05:15:21;;;;;;;5.97;1.65;;;-0.40;99.90;;;;;;5032776;28;20412;-89
2022/04/17 05:17:49;;;;;;;3.40;1.42;;;-0.30;99.90;;;;;;5020320;28;20458;-87
2022/04/17 05:20:17;;;;;;;10.32;4.50;;;-0.30;99.90;;;;;;5017037;28;20433;-88
2022/04/17 05:22:44;;;;;;;5.75;2.67;;;-0.20;99.90;;;;;;5014980;28;20421;-88
2022/04/17 05:25:13;;;;;;;4.03;1.70;;;-0.20;99.90;;;;;;5018064;28;20406;-87
2022/04/17 05:27:41;;;;;;;1.63;1.00;;;-0.20;99.90;;;;;;5017899;28;20396;-87
2022/04/17 05:30:09;;;;;;;3.65;1.38;;;-0.10;99.90;;;;;;5000950;28;20413;-86
2022/04/17 05:32:36;;;;;;;3.53;1.50;;;-0.10;99.90;;;;;;5035120;28;20723;-88
2022/04/17 05:35:05;;;;;;;3.83;1.70;;;-0.10;99.90;;;;;;5015640;28;20407;-87
2022/04/17 05:37:33;;;;;;;3.00;1.48;;;0.00;99.90;;;;;;5015672;28;20411;-88
2022/04/17 05:40:00;;;;;;;3.30;1.47;;;0.10;99.90;;;;;;5005643;28;20441;-87
2022/04/17 05:42:29;;;;;;;2.92;1.45;;;0.20;99.90;;;;;;5014676;28;20418;-85
2022/04/17 05:44:57;;;;;;;7.63;3.83;;;0.20;99.90;;;;;;5016045;28;20452;-90
2022/04/17 05:47:25;;;;;;;4.37;1.73;;;0.20;99.90;;;;;;5001748;28;20497;-87
2022/04/17 05:49:53;;;;;;;2.88;1.33;;;0.20;99.90;;;;;;5018417;28;20529;-87
2022/04/17 05:52:21;;;;;;;3.33;1.23;;;0.30;99.90;;;;;;5012789;28;20395;-88
2022/04/17 05:54:48;;;;;;;3.38;1.30;;;0.40;99.90;;;;;;5007081;28;20772;-88
2022/04/17 05:57:16;;;;;;;2.35;1.30;;;0.40;99.90;;;;;;5046015;28;20802;-88
2022/04/17 05:59:44;;;;;;;4.40;1.53;;;0.40;99.90;;;;;;5015009;28;20508;-88
2022/04/17 06:02:13;;;;;;;4.38;1.15;;;0.50;99.90;;;;;;5015948;28;20782;-87
2022/04/17 06:04:42;;;;;;;2.55;1.20;;;0.60;99.90;;;;;;5017428;28;20396;-87
2022/04/17 06:07:10;;;;;;;3.17;1.60;;;0.60;99.90;;;;;;5019483;28;20427;-87
2022/04/17 06:09:40;;;;;;;2.85;1.13;;;0.60;99.90;;;;;;4997535;28;20416;-88
2022/04/17 06:12:08;;;;;;;3.87;1.40;;;0.70;99.90;;;;;;5012123;28;20501;-88
2022/04/17 06:14:35;;;;;;;3.53;1.10;;;0.70;99.90;;;;;;5027383;28;20899;-87
2022/04/17 06:17:03;;;;;;;3.50;1.20;;;0.80;99.90;;;;;;5010206;28;20408;-86
2022/04/17 06:19:31;;;;;;;11.77;5.07;;;0.90;99.90;;;;;;5016320;28;20820;-88
2022/04/17 06:21:59;;;;;;;3.70;1.20;;;0.90;99.90;;;;;;4997760;28;20474;-89
2022/04/17 06:24:26;;;;;;;2.97;1.17;;;1.20;99.90;;;;;;5008672;28;20410;-89
2022/04/17 06:26:54;;;;;;;2.53;1.20;;;1.20;99.90;;;;;;4998803;28;20403;-89
2022/04/17 06:29:22;;;;;;;4.32;1.70;;;1.20;99.90;;;;;;5014125;28;20402;-89
2022/04/17 06:31:49;;;;;;;7.28;2.92;;;1.20;99.90;;;;;;5003996;28;20826;-88
2022/04/17 06:34:17;;;;;;;3.42;1.25;;;1.30;99.90;;;;;;5015965;28;20435;-89
2022/04/17 06:36:44;;;;;;;3.73;1.40;;;1.50;99.90;;;;;;5010938;28;20479;-89
2022/04/17 06:39:12;;;;;;;3.35;1.25;;;1.40;99.90;;;;;;5000450;28;20397;-89
2022/04/17 06:41:40;;;;;;;2.88;1.27;;;1.40;99.90;;;;;;5035982;28;20411;-89
2022/04/17 06:44:11;;;;;;;4.05;1.20;;;1.40;99.90;;;;;;5018064;28;20401;-89
2022/04/17 06:46:39;;;;;;;3.50;1.50;;;1.50;99.90;;;;;;5019890;28;20405;-88
2022/04/17 06:49:07;;;;;;;3.30;1.33;;;1.50;99.90;;;;;;4995350;28;20405;-87
2022/04/17 06:51:38;;;;;;;2.75;1.10;;;1.60;99.90;;;;;;5011660;28;20445;-89
2022/04/17 06:54:06;;;;;;;2.50;1.02;;;1.60;99.90;;;;;;5019077;28;20417;-88
2022/04/17 06:56:34;;;;;;;3.72;1.10;;;1.70;99.90;;;;;;5035694;28;20403;-89
2022/04/17 06:59:05;;;;;;;2.50;0.93;;;1.80;99.90;;;;;;5034539;28;21015;-89
2022/04/17 07:01:33;;;;;;;4.50;1.45;;;1.90;99.90;;;;;;5018964;28;20412;-87
2022/04/17 07:04:01;;;;;;;3.28;1.20;;;1.80;99.90;;;;;;5014066;28;20399;-85
2022/04/17 07:06:28;;;;;;;3.55;1.17;;;1.90;99.90;;;;;;5023779;28;20532;-87
2022/04/17 07:08:56;;;;;;;1.83;0.90;;;2.00;99.90;;;;;;5017747;28;20420;-88
2022/04/17 07:11:25;;;;;;;2.95;1.10;;;2.20;99.90;;;;;;5020187;28;20462;-89
2022/04/17 07:13:53;;;;;;;5.13;1.40;;;2.20;99.90;;;;;;5008413;28;20991;-88
2022/04/17 07:16:20;;;;;;;2.00;0.80;;;2.20;99.90;;;;;;5038006;28;20862;-88
2022/04/17 07:18:48;;;;;;;2.17;1.15;;;2.30;99.90;;;;;;5019066;28;20476;-87
2022/04/17 07:21:16;;;;;;;2.47;1.20;;;2.30;99.90;;;;;;5036871;28;20410;-87
2022/04/17 07:23:45;;;;;;;1.95;0.90;;;2.50;99.90;;;;;;5020962;28;20421;-88
2022/04/17 07:26:13;;;;;;;3.70;1.20;;;2.50;99.90;;;;;;5023217;28;20417;-86
2022/04/17 07:28:41;;;;;;;2.35;0.95;;;2.50;99.90;;;;;;5012205;28;20507;-87
2022/04/17 07:31:09;;;;;;;2.33;0.80;;;2.50;99.90;;;;;;5034379;28;20406;-88
2022/04/17 07:33:36;;;;;;;21.92;10.10;;;2.50;99.90;;;;;;5021101;28;20393;-88
2022/04/17 07:36:04;;;;;;;2.13;0.82;;;2.50;99.90;;;;;;5020852;28;20466;-88
2022/04/17 07:38:32;;;;;;;4.60;1.50;;;2.60;99.90;;;;;;5000504;28;20439;-88
2022/04/17 07:41:00;;;;;;;5.68;1.80;;;2.60;99.90;;;;;;5021547;28;20412;-88
2022/04/17 07:43:28;;;;;;;3.20;1.10;;;2.80;99.90;;;;;;5038200;28;20407;-87
2022/04/17 07:45:55;;;;;;;4.18;1.42;;;2.80;99.90;;;;;;5018280;28;20419;-89
2022/04/17 07:48:24;;;;;;;3.03;0.90;;;2.80;99.90;;;;;;4999814;28;20399;-89
2022/04/17 07:50:54;;;;;;;3.28;1.00;;;2.80;99.90;;;;;;5011759;28;20907;-89
2022/04/17 07:53:21;;;;;;;2.30;1.10;;;2.80;99.90;;;;;;5000814;28;20482;-87
2022/04/17 07:55:50;;;;;;;3.38;0.93;;;3.00;99.90;;;;;;5032268;28;20466;-89
2022/04/17 07:58:40;;;;;;;1.83;0.82;;;3.00;99.90;;;;;;5022474;28;20409;-88
2022/04/17 08:01:14;;;;;;;2.38;0.85;;;2.90;99.90;;;;;;5000733;28;20784;-88
2022/04/17 08:06:10;;;;;;;2.00;0.80;;;3.10;99.90;;;;;;5010945;28;20480;-89
2022/04/17 08:08:39;;;;;;;2.50;1.00;;;3.30;99.90;;;;;;5034700;28;20502;-89
2022/04/17 08:11:08;;;;;;;3.00;0.90;;;3.30;99.90;;;;;;4997076;28;20415;-88
2022/04/17 08:13:36;;;;;;;2.10;1.00;;;3.40;99.90;;;;;;5031835;28;20497;-87
2022/04/17 08:16:05;;;;;;;2.03;0.80;;;3.40;99.90;;;;;;5005376;28;20504;-88
2022/04/17 08:18:40;;;;;;;2.60;0.70;;;3.30;99.90;;;;;;5035790;28;20496;-88
2022/04/17 08:21:09;;;;;;;2.33;0.80;;;3.30;99.90;;;;;;5036700;28;20860;-89
2022/04/17 08:23:37;;;;;;;2.33;0.70;;;3.50;99.90;;;;;;5025181;27;20447;-89
2022/04/17 08:26:06;;;;;;;2.97;0.90;;;3.70;99.90;;;;;;5017142;28;20411;-88
2022/04/17 08:28:33;;;;;;;1.60;0.80;;;3.60;99.90;;;;;;5014262;28;20410;-89
2022/04/17 08:31:01;;;;;;;2.65;0.70;;;3.50;99.90;;;;;;5017426;28;20419;-89
2022/04/17 08:33:29;;;;;;;2.58;0.70;;;3.70;99.90;;;;;;5009578;28;20403;-88
2022/04/17 08:35:59;;;;;;;1.52;0.70;;;3.70;99.90;;;;;;5010546;28;20844;-87
2022/04/17 08:38:27;;;;;;;0.75;0.50;;;3.70;99.90;;;;;;5003295;28;20825;-88
2022/04/17 08:40:57;;;;;;;1.23;0.40;;;3.60;99.90;;;;;;4995916;28;20415;-87
2022/04/17 08:43:26;;;;;;;1.15;0.47;;;3.70;99.90;;;;;;5035795;28;20409;-88
2022/04/17 08:45:54;;;;;;;1.30;0.43;;;3.80;99.90;;;;;;5007735;28;20735;-88
2022/04/17 08:48:23;;;;;;;1.15;0.60;;;3.90;99.90;;;;;;5010355;28;20412;-88
2022/04/17 08:50:54;;;;;;;2.17;0.50;;;3.80;99.90;;;;;;5026757;28;20456;-89
2022/04/17 08:53:22;;;;;;;2.20;0.57;;;3.80;99.90;;;;;;5003001;28;20433;-88
2022/04/17 08:55:51;;;;;;;1.45;0.50;;;3.90;99.90;;;;;;5005209;28;20420;-88
2022/04/17 08:58:19;;;;;;;1.52;0.50;;;4.00;99.90;;;;;;5013555;28;20972;-90
2022/04/17 09:00:47;;;;;;;1.70;0.70;;;4.00;99.90;;;;;;5009018;28;20436;-87
2022/04/17 09:03:15;;;;;;;1.35;0.50;;;4.00;99.90;;;;;;5024415;28;20433;-87
2022/04/17 09:05:44;;;;;;;1.70;0.70;;;4.00;99.90;;;;;;5017019;28;20935;-88
2022/04/17 09:08:23;;;;;;;1.70;0.80;;;4.10;99.90;;;;;;5033882;28;20407;-88
2022/04/17 09:10:56;;;;;;;1.80;0.70;;;4.20;99.90;;;;;;5027884;28;20410;-89
2022/04/17 09:13:42;;;;;;;1.80;0.50;;;4.40;99.90;;;;;;5011305;28;20420;-88
2022/04/17 09:16:12;;;;;;;1.70;0.57;;;4.40;99.90;;;;;;5016131;28;20413;-89
2022/04/17 09:18:40;;;;;;;1.50;0.68;;;4.40;99.90;;;;;;5030652;28;20455;-87
2022/04/17 09:21:08;;;;;;;0.90;0.50;;;4.40;99.90;;;;;;4989092;28;20974;-89
2022/04/17 09:23:38;;;;;;;1.23;0.60;;;4.40;99.90;;;;;;5029377;28;20409;-88
2022/04/17 09:26:06;;;;;;;5.57;2.27;;;4.50;99.90;;;;;;5039454;28;20748;-89
2022/04/17 09:28:36;;;;;;;3.73;1.10;;;4.50;99.90;;;;;;5015134;28;20411;-86
2022/04/17 09:31:13;;;;;;;0.70;0.60;;;4.50;99.90;;;;;;5032009;28;20474;-88
2022/04/17 09:33:49;;;;;;;4.83;2.47;;;4.50;99.90;;;;;;5028173;28;20403;-89
2022/04/17 09:36:28;;;;;;;7.63;3.55;;;4.60;99.90;;;;;;5008625;28;20503;-89
2022/04/17 09:39:14;;;;;;;1.95;0.70;;;4.70;99.90;;;;;;4989789;28;20871;-87
2022/04/17 09:41:56;;;;;;;4.25;1.73;;;4.70;99.90;;;;;;5006245;28;20395;-89
2022/04/17 09:44:47;;;;;;;1.83;0.73;;;4.70;99.90;;;;;;5027339;28;20466;-89
2022/04/17 09:47:27;;;;;;;1.33;0.60;;;4.70;99.90;;;;;;5008205;28;20490;-88
2022/04/17 09:50:01;;;;;;;5.25;1.80;;;4.80;99.90;;;;;;4999482;28;20414;-89
2022/04/17 09:52:31;;;;;;;2.50;0.65;;;4.90;99.90;;;;;;5028704;28;20430;-87
2022/04/17 09:55:01;;;;;;;2.25;0.77;;;4.90;99.90;;;;;;4988759;28;20472;-89
2022/04/17 09:57:36;;;;;;;2.22;0.55;;;5.00;99.90;;;;;;4999137;28;20397;-88
2022/04/17 10:00:16;;;;;;;2.70;0.80;;;5.10;99.90;;;;;;5021966;28;20423;-89
2022/04/17 10:02:46;;;;;;;1.52;0.70;;;5.20;99.90;;;;;;5024674;28;20822;-89
2022/04/17 10:05:16;;;;;;;0.85;0.60;;;5.30;99.90;;;;;;5007999;28;20437;-88
2022/04/17 10:07:45;;;;;;;1.58;0.52;;;5.40;99.90;;;;;;4997281;28;20405;-88
2022/04/17 10:10:14;;;;;;;1.45;0.70;;;5.30;99.90;;;;;;5032689;28;20413;-88
2022/04/17 10:12:45;;;;;;;0.75;0.52;;;5.50;99.90;;;;;;5010903;28;20402;-88
2022/04/17 10:15:14;;;;;;;1.23;0.60;;;5.50;99.90;;;;;;5013952;28;20490;-88
2022/04/17 10:17:45;;;;;;;3.40;1.25;;;5.50;99.90;;;;;;5040131;27;20779;-88
2022/04/17 10:20:14;;;;;;;2.42;0.57;;;5.70;99.90;;;;;;5041892;28;20405;-87
2022/04/17 10:22:43;;;;;;;2.50;0.60;;;5.70;99.90;;;;;;5015167;28;20404;-88
2022/04/17 10:25:12;;;;;;;1.40;0.60;;;5.80;99.90;;;;;;5046390;28;20412;-89
2022/04/17 10:27:56;;;;;;;4.03;1.20;;;5.90;99.90;;;;;;5017779;28;20401;-88
2022/04/17 10:30:38;;;;;;;2.07;0.80;;;5.80;99.90;;;;;;5014808;28;20419;-88
2022/04/17 10:33:20;;;;;;;1.15;0.40;;;6.00;99.90;;;;;;5017195;28;20833;-88
2022/04/17 10:36:16;;;;;;;1.27;0.57;;;6.00;99.90;;;;;;5038180;28;20918;-88
2022/04/17 10:38:46;;;;;;;1.07;0.50;;;6.10;99.90;;;;;;5031911;28;20400;-88
2022/04/17 10:41:16;;;;;;;2.25;0.52;;;6.10;99.90;;;;;;4993332;28;20397;-88
2022/04/17 10:43:46;;;;;;;1.95;0.57;;;6.10;99.90;;;;;;5033657;28;20832;-89
2022/04/17 10:46:19;;;;;;;2.00;0.70;;;6.20;99.90;;;;;;5015953;28;20906;-88
2022/04/17 10:49:05;;;;;;;1.58;0.60;;;6.20;99.90;;;;;;5028831;28;20515;-89
2022/04/17 10:51:35;;;;;;;0.88;0.50;;;6.30;99.90;;;;;;5030632;28;20495;-88
2022/04/17 10:54:10;;;;;;;1.98;0.60;;;6.30;99.90;;;;;;5001417;28;20946;-87
2022/04/17 10:56:40;;;;;;;2.40;0.75;;;6.20;99.90;;;;;;5011570;28;20403;-89
2022/04/17 10:59:19;;;;;;;2.00;0.50;;;6.30;99.90;;;;;;5018749;28;20408;-89
2022/04/17 11:01:51;;;;;;;1.77;0.60;;;6.50;99.90;;;;;;5011078;28;20756;-88
2022/04/17 11:04:23;;;;;;;1.02;0.57;;;6.60;99.90;;;;;;5015192;28;20411;-89
2022/04/17 11:07:06;;;;;;;1.17;0.60;;;6.60;99.90;;;;;;5025650;28;20921;-89
2022/04/17 11:09:39;;;;;;;1.90;0.80;;;6.70;99.90;;;;;;5007789;28;20408;-89
2022/04/17 11:12:18;;;;;;;1.77;0.70;;;6.70;99.90;;;;;;5012480;28;20411;-89
2022/04/17 11:15:17;;;;;;;2.63;0.60;;;6.70;99.90;;;;;;5015233;28;21013;-89
2022/04/17 11:17:49;;;;;;;1.40;0.60;;;6.80;99.90;;;;;;5006621;28;20435;-89
2022/04/17 11:20:17;;;;;;;2.80;0.60;;;6.90;99.90;;;;;;5014720;28;20394;-88
2022/04/17 11:22:48;;;;;;;3.57;1.33;;;7.00;99.90;;;;;;5003648;28;20399;-88
2022/04/17 11:25:18;;;;;;;0.93;0.68;;;7.00;99.90;;;;;;5022973;28;20872;-87
2022/04/17 11:27:51;;;;;;;1.58;1.00;;;7.00;99.90;;;;;;5009342;28;20396;-89
2022/04/17 11:30:38;;;;;;;2.53;0.60;;;7.10;99.90;;;;;;5007022;28;20476;-89
2022/04/17 11:33:07;;;;;;;1.52;0.50;;;7.30;99.90;;;;;;5012650;28;20420;-92
2022/04/17 11:35:35;;;;;;;1.80;0.60;;;7.20;99.90;;;;;;5015245;28;20458;-90
2022/04/17 11:38:07;;;;;;;0.80;0.50;;;7.20;99.90;;;;;;5014808;28;20403;-90
2022/04/17 11:40:41;;;;;;;1.65;0.60;;;7.20;99.90;;;;;;5036713;28;20407;-91
2022/04/17 11:43:14;;;;;;;1.63;0.57;;;7.40;99.90;;;;;;5008010;28;20760;-90
2022/04/17 11:45:44;;;;;;;4.00;1.88;;;7.50;99.90;;;;;;5034142;28;20407;-91
2022/04/17 11:48:17;;;;;;;1.33;0.73;;;7.60;99.90;;;;;;5036913;28;20407;-90
2022/04/17 11:51:04;;;;;;;1.85;0.60;;;7.80;99.90;;;;;;5025411;28;20915;-89
2022/04/17 11:53:35;;;;;;;2.15;0.70;;;7.90;99.90;;;;;;5034379;28;20463;-90
2022/04/17 11:56:07;;;;;;;0.90;0.60;;;7.90;99.90;;;;;;5010727;28;20464;-91
2022/04/17 11:58:35;;;;;;;1.10;0.80;;;7.90;99.90;;;;;;4995462;28;20407;-90
2022/04/17 12:01:05;;;;;;;5.30;3.03;;;8.00;99.90;;;;;;5024826;28;20413;-91
2022/04/17 12:03:45;;;;;;;1.00;0.40;;;8.00;99.90;;;;;;5009883;28;20491;-90
2022/04/17 12:06:14;;;;;;;1.48;0.70;;;8.20;99.90;;;;;;5011343;28;20769;-90
2022/04/17 12:08:48;;;;;;;1.25;0.60;;;8.10;98.90;;;;;;5042765;28;20408;-91
2022/04/17 12:11:18;;;;;;;1.47;0.70;;;8.30;99.90;;;;;;5031984;28;20409;-92
2022/04/17 12:13:54;;;;;;;3.70;1.33;;;8.30;99.90;;;;;;5023767;28;20508;-92
2022/04/17 12:16:22;;;;;;;1.17;0.55;;;8.40;99.90;;;;;;5025207;28;20407;-90
2022/04/17 12:18:54;;;;;;;1.65;0.60;;;8.40;99.90;;;;;;5014585;28;20401;-92
2022/04/17 12:21:29;;;;;;;1.80;0.70;;;8.50;99.90;;;;;;5000488;28;20739;-90
2022/04/17 12:24:01;;;;;;;2.95;0.85;;;8.40;99.90;;;;;;5017662;28;20406;-91
2022/04/17 12:26:29;;;;;;;1.75;0.60;;;8.40;99.90;;;;;;4993093;28;20431;-90
2022/04/17 12:28:58;;;;;;;1.30;0.60;;;8.30;98.70;;;;;;5010497;28;20415;-88
2022/04/17 12:31:28;;;;;;;2.03;0.60;;;8.60;99.90;;;;;;4998055;28;20417;-90
2022/04/17 12:34:19;;;;;;;1.40;0.68;;;8.60;99.90;;;;;;5019625;28;20413;-92
2022/04/17 12:36:48;;;;;;;1.60;0.60;;;8.80;99.90;;;;;;4995485;28;20412;-91
2022/04/17 12:39:16;;;;;;;1.30;0.52;;;8.80;98.30;;;;;;5011125;28;20555;-91
2022/04/17 12:41:51;;;;;;;1.45;0.50;;;8.80;98.70;;;;;;5009946;28;20403;-92
2022/04/17 12:44:34;;;;;;;1.05;0.60;;;8.70;96.60;;;;;;5008993;28;20416;-92
2022/04/17 12:47:17;;;;;;;1.58;0.60;;;8.80;99.40;;;;;;5041401;28;20984;-91
2022/04/17 12:49:48;;;;;;;1.33;0.65;;;8.80;99.50;;;;;;5021875;28;20994;-91
2022/04/17 12:52:22;;;;;;;2.20;1.10;;;8.80;99.40;;;;;;5030663;28;20983;-91
2022/04/17 12:54:50;;;;;;;2.35;0.70;;;8.80;99.30;;;;;;5005934;28;20391;-92
2022/04/17 12:57:21;;;;;;;2.05;0.90;;;8.80;99.80;;;;;;4995277;28;20403;-91
2022/04/17 12:59:51;;;;;;;1.15;0.70;;;9.00;99.90;;;;;;5013756;28;20759;-90
2022/04/17 13:02:24;;;;;;;1.30;0.53;;;9.10;99.50;;;;;;5008062;28;20897;-93
2022/04/17 13:04:54;;;;;;;1.15;0.70;;;9.10;98.10;;;;;;5009145;28;20912;-93
2022/04/17 13:07:22;;;;;;;1.95;0.85;;;9.30;99.90;;;;;;4997980;28;20505;-91
2022/04/17 13:09:53;;;;;;;0.85;0.60;;;9.20;99.30;;;;;;5014171;28;20411;-93
2022/04/17 13:12:34;;;;;;;1.20;0.80;;;9.10;99.40;;;;;;5029693;28;20959;-91
2022/04/17 13:15:07;;;;;;;1.35;0.82;;;9.10;99.90;;;;;;5015806;28;20409;-92
2022/04/17 13:17:46;;;;;;;2.03;1.02;;;9.10;99.90;;;;;;4995652;28;20422;-92
2022/04/17 13:20:17;;;;;;;1.15;0.70;;;9.20;97.70;;;;;;4991965;28;20413;-92
2022/04/17 13:22:47;;;;;;;1.48;0.70;;;9.20;97.00;;;;;;5026065;28;20435;-91
2022/04/17 13:25:17;;;;;;;1.40;0.77;;;9.30;96.00;;;;;;5036427;28;20501;-92